Milwaukee, Wisconsin
Traffic Map
Current Weather Conditions
Milwaukee, Wisconsin
Few Clouds
Few Clouds
21°
Feels Like: 21°
Wind Chill: 21° Ceiling: Unl
Heat Index: 21° Visibility: 10mi
Dew Point: 12° Wind: 5mph
Humidity: 57% Direction: 120° (ESE)
Pressure: 30.01in Gusts: 0mph
Raw Report DataKMKE 302252Z 12004KT 10SM FEW050 FEW070 21/12 A3001 RMK AO2 SLP162 T02060117
Traffic Incident Summary
Active as of:
Severity:
Category:
InformationThere was an issue retrieving the traffic information for this location. Please try a different location or try again shortly.
Advertisements
Track Severe Weather on mobile